Climatologie pour Saint-Brevin les Pins
Jour • Résumé pour mars 23, 2017 Système :  Métrique    Anglais   Mixte
« - 1 jour
+ 1 jour »
Jour Semaine Mois Année Personnalisé
  Maximum : Minimum : Moyenne :
Température sous abri : 10.8 °C 3.8 °C 6.1 °C
Point de rosée : 8.5 °C 3.4 °C 5.3 °C
Humidité : 99 % 82 % 95 %
Vitesse du vent : 17.7 km/h 0.0 km/h 3.5 km/h
Rafale : 29.0 km/h - -
Direction :- - East
Pression : 1014.4 hPa 1006.3 hPa -
Précipitations : 4.3 mm    
Historical Graphs
 
 
Tableau de données pour mars 23, 2017
Heure Tempé Pt rosée Pression Vent Vitesse Rafale Humidité Taux pluie (/hr) Soleil
00:00 4.3 °C 3.9 °C 1007.0 hPa SE 4.8 km/h 6.4 km/h 97 % 0.0 mm 0 W/m2
00:10 4.2 °C 3.7 °C 1007.0 hPa SE 1.6 km/h 8.0 km/h 97 % 0.0 mm 0 W/m2
00:15 4.2 °C 3.7 °C 1007.0 hPa SE 3.2 km/h 9.7 km/h 97 % 0.0 mm 0 W/m2
00:20 4.1 °C 3.7 °C 1007.0 hPa SE 4.8 km/h 9.7 km/h 97 % 0.0 mm 0 W/m2
00:25 4.1 °C 3.7 °C 1007.0 hPa SSE 3.2 km/h 8.0 km/h 97 % 0.0 mm 0 W/m2
00:30 4.1 °C 3.6 °C 1007.0 hPa Calm   8.0 km/h 97 % 0.0 mm 0 W/m2
00:35 4.1 °C 3.6 °C 1007.0 hPa SE 4.8 km/h 6.4 km/h 97 % 0.0 mm 0 W/m2
00:40 4.1 °C 3.6 °C 1007.0 hPa SE 3.2 km/h 6.4 km/h 97 % 0.0 mm 0 W/m2
00:45 4.2 °C 3.7 °C 1007.0 hPa Calm   6.4 km/h 97 % 0.0 mm 0 W/m2
00:50 4.2 °C 3.7 °C 1007.0 hPa SE 1.6 km/h 4.8 km/h 97 % 0.0 mm 0 W/m2
00:55 4.2 °C 3.8 °C 1007.0 hPa Calm   6.4 km/h 97 % 0.0 mm 0 W/m2
01:00 4.2 °C 3.8 °C 1007.0 hPa Calm   6.4 km/h 97 % 0.0 mm 0 W/m2
01:05 4.2 °C 3.7 °C 1006.7 hPa ESE 1.6 km/h 4.8 km/h 97 % 0.0 mm 0 W/m2
01:10 4.1 °C 3.7 °C 1006.7 hPa ESE 1.6 km/h 4.8 km/h 97 % 0.0 mm 0 W/m2
01:15 4.1 °C 3.7 °C 1006.7 hPa Calm   4.8 km/h 97 % 0.0 mm 0 W/m2
01:20 4.1 °C 3.6 °C 1006.7 hPa Calm   3.2 km/h 97 % 0.0 mm 0 W/m2
01:25 4.1 °C 3.6 °C 1006.7 hPa Calm   3.2 km/h 97 % 0.0 mm 0 W/m2
01:30 4.1 °C 3.6 °C 1007.0 hPa Calm   3.2 km/h 97 % 0.0 mm 0 W/m2
01:35 4.1 °C 3.6 °C 1007.0 hPa ESE 1.6 km/h 3.2 km/h 97 % 0.0 mm 0 W/m2
01:40 4.1 °C 3.6 °C 1007.0 hPa Calm   3.2 km/h 97 % 0.0 mm 0 W/m2
01:45 3.9 °C 3.5 °C 1007.0 hPa Calm   1.6 km/h 97 % 0.0 mm 0 W/m2
01:50 3.9 °C 3.5 °C 1006.7 hPa Calm   4.8 km/h 97 % 0.0 mm 0 W/m2
01:55 3.9 °C 3.5 °C 1006.7 hPa ENE 3.2 km/h 4.8 km/h 97 % 0.0 mm 0 W/m2
02:00 3.9 °C 3.5 °C 1006.7 hPa ENE 1.6 km/h 6.4 km/h 97 % 0.0 mm 0 W/m2
02:05 3.9 °C 3.5 °C 1006.7 hPa ENE 1.6 km/h 6.4 km/h 97 % 0.0 mm 0 W/m2
02:10 3.9 °C 3.5 °C 1006.7 hPa Calm   8.0 km/h 97 % 0.0 mm 0 W/m2
02:15 3.9 °C 3.5 °C 1006.7 hPa Calm   8.0 km/h 97 % 0.0 mm 0 W/m2
02:25 3.8 °C 3.4 °C 1006.7 hPa ENE 3.2 km/h 6.4 km/h 97 % 0.0 mm 0 W/m2
02:30 3.8 °C 3.4 °C 1006.7 hPa ENE 1.6 km/h 6.4 km/h 97 % 0.0 mm 0 W/m2
02:35 3.8 °C 3.4 °C 1006.7 hPa Calm   4.8 km/h 97 % 0.0 mm 0 W/m2
02:40 3.8 °C 3.4 °C 1006.7 hPa East 1.6 km/h 8.0 km/h 97 % 0.0 mm 0 W/m2
02:45 3.9 °C 3.5 °C 1006.7 hPa East 1.6 km/h 8.0 km/h 97 % 0.0 mm 0 W/m2
02:50 3.9 °C 3.5 °C 1006.7 hPa ESE 3.2 km/h 8.0 km/h 97 % 0.0 mm 0 W/m2
02:55 4.0 °C 3.7 °C 1006.7 hPa ESE 3.2 km/h 8.0 km/h 98 % 0.0 mm 0 W/m2
03:00 3.9 °C 3.7 °C 1006.7 hPa ESE 3.2 km/h 6.4 km/h 98 % 0.0 mm 0 W/m2
03:05 3.9 °C 3.5 °C 1006.7 hPa ESE 3.2 km/h 4.8 km/h 97 % 0.0 mm 0 W/m2
03:10 3.9 °C 3.5 °C 1006.7 hPa ESE 3.2 km/h 8.0 km/h 97 % 0.0 mm 0 W/m2
03:15 3.9 °C 3.5 °C 1006.7 hPa ESE 8.0 km/h 8.0 km/h 97 % 0.0 mm 0 W/m2
03:20 4.0 °C 3.6 °C 1006.7 hPa ESE 3.2 km/h 8.0 km/h 97 % 0.0 mm 0 W/m2
03:25 4.1 °C 3.8 °C 1006.7 hPa ESE 3.2 km/h 8.0 km/h 98 % 0.0 mm 0 W/m2
03:30 4.2 °C 3.9 °C 1007.0 hPa SE 4.8 km/h 6.4 km/h 98 % 0.0 mm 0 W/m2
03:35 4.2 °C 3.9 °C 1006.7 hPa Calm   8.0 km/h 98 % 0.0 mm 0 W/m2
03:40 4.3 °C 4.0 °C 1006.7 hPa ESE 3.2 km/h 8.0 km/h 98 % 0.0 mm 0 W/m2
03:45 4.3 °C 4.0 °C 1006.7 hPa ESE 1.6 km/h 6.4 km/h 98 % 0.0 mm 0 W/m2
03:50 4.3 °C 4.0 °C 1006.7 hPa East 1.6 km/h 6.4 km/h 98 % 0.0 mm 0 W/m2
03:55 4.3 °C 4.0 °C 1006.7 hPa Calm   6.4 km/h 98 % 0.0 mm 0 W/m2
04:00 4.3 °C 4.0 °C 1006.7 hPa Calm   6.4 km/h 98 % 0.0 mm 0 W/m2
04:05 4.3 °C 4.0 °C 1006.7 hPa Calm   4.8 km/h 98 % 0.0 mm 0 W/m2
04:10 4.3 °C 4.0 °C 1006.3 hPa East 1.6 km/h 4.8 km/h 98 % 0.0 mm 0 W/m2
04:20 4.3 °C 4.0 °C 1006.3 hPa East 3.2 km/h 4.8 km/h 98 % 0.0 mm 0 W/m2
04:25 4.3 °C 4.0 °C 1006.3 hPa Calm   4.8 km/h 98 % 0.0 mm 0 W/m2
04:30 4.3 °C 4.0 °C 1006.3 hPa Calm   3.2 km/h 98 % 0.0 mm 0 W/m2
04:35 4.3 °C 4.0 °C 1006.3 hPa NE 4.8 km/h 8.0 km/h 98 % 0.0 mm 0 W/m2
04:40 4.3 °C 4.0 °C 1006.3 hPa Calm   8.0 km/h 98 % 0.0 mm 0 W/m2
04:45 4.3 °C 4.0 °C 1006.3 hPa Calm   4.8 km/h 98 % 0.0 mm 0 W/m2
04:55 4.2 °C 3.9 °C 1006.3 hPa Calm   8.0 km/h 98 % 0.0 mm 0 W/m2
05:00 4.3 °C 4.0 °C 1006.7 hPa ENE 4.8 km/h 8.0 km/h 98 % 0.0 mm 0 W/m2
05:05 4.3 °C 4.0 °C 1006.3 hPa Calm   6.4 km/h 98 % 0.0 mm 0 W/m2
05:10 4.3 °C 4.0 °C 1006.3 hPa East 1.6 km/h 8.0 km/h 98 % 0.0 mm 0 W/m2
05:15 4.3 °C 4.0 °C 1006.3 hPa ENE 4.8 km/h 8.0 km/h 98 % 0.0 mm 0 W/m2
05:20 4.4 °C 4.1 °C 1006.3 hPa ENE 6.4 km/h 11.3 km/h 98 % 0.0 mm 0 W/m2
05:25 4.4 °C 4.1 °C 1006.3 hPa NE 4.8 km/h 14.5 km/h 98 % 0.0 mm 0 W/m2
05:30 4.3 °C 4.0 °C 1006.3 hPa East 9.7 km/h 14.5 km/h 98 % 0.0 mm 0 W/m2
05:35 4.3 °C 4.0 °C 1006.3 hPa ENE 8.0 km/h 12.9 km/h 98 % 0.0 mm 0 W/m2
05:40 4.3 °C 4.0 °C 1006.3 hPa ENE 8.0 km/h 14.5 km/h 98 % 0.0 mm 0 W/m2
05:45 4.3 °C 4.0 °C 1006.3 hPa East 4.8 km/h 14.5 km/h 98 % 0.0 mm 0 W/m2
05:50 4.4 °C 4.1 °C 1006.7 hPa NE 1.6 km/h 12.9 km/h 98 % 0.0 mm 0 W/m2
05:55 4.3 °C 4.0 °C 1006.7 hPa NNE 6.4 km/h 11.3 km/h 98 % 0.0 mm 0 W/m2
06:00 4.3 °C 4.0 °C 1006.7 hPa East 6.4 km/h 8.0 km/h 98 % 0.0 mm 0 W/m2
06:10 4.2 °C 3.9 °C 1006.7 hPa ENE 8.0 km/h 14.5 km/h 98 % 0.0 mm 0 W/m2
06:15 4.2 °C 3.9 °C 1006.7 hPa NE 9.7 km/h 14.5 km/h 98 % 0.0 mm 0 W/m2
06:20 4.1 °C 3.8 °C 1006.7 hPa ENE 8.0 km/h 16.1 km/h 98 % 0.0 mm 0 W/m2
06:25 4.1 °C 3.8 °C 1006.7 hPa ENE 4.8 km/h 16.1 km/h 98 % 0.0 mm 0 W/m2
06:30 4.1 °C 3.8 °C 1006.7 hPa ENE 4.8 km/h 12.9 km/h 98 % 0.0 mm 0 W/m2
06:35 4.2 °C 3.9 °C 1006.7 hPa East 3.2 km/h 12.9 km/h 98 % 0.0 mm 0 W/m2
06:40 4.1 °C 3.8 °C 1006.7 hPa East 3.2 km/h 14.5 km/h 98 % 0.0 mm 0 W/m2
06:45 4.2 °C 3.9 °C 1006.7 hPa ENE 1.6 km/h 14.5 km/h 98 % 0.0 mm 0 W/m2
06:50 4.2 °C 3.9 °C 1006.7 hPa ENE 8.0 km/h 14.5 km/h 98 % 0.0 mm 0 W/m2
06:55 4.2 °C 3.9 °C 1007.0 hPa ENE 3.2 km/h 14.5 km/h 98 % 0.0 mm 0 W/m2
07:00 4.3 °C 4.0 °C 1007.0 hPa Calm   14.5 km/h 98 % 0.0 mm 0 W/m2
07:05 4.3 °C 4.0 °C 1007.0 hPa East 3.2 km/h 8.0 km/h 98 % 0.3 mm 0 W/m2
07:10 4.4 °C 4.1 °C 1007.0 hPa East 1.6 km/h 8.0 km/h 98 % 0.3 mm 0 W/m2
07:15 4.4 °C 4.2 °C 1007.0 hPa ENE 6.4 km/h 12.9 km/h 98 % 0.3 mm 0 W/m2
07:25 4.6 °C 4.3 °C 1007.0 hPa NE 3.2 km/h 14.5 km/h 98 % 0.3 mm 0 W/m2
07:30 4.7 °C 4.4 °C 1007.0 hPa ENE 8.0 km/h 14.5 km/h 98 % 0.3 mm 0 W/m2
07:35 4.7 °C 4.4 °C 1007.0 hPa ENE 4.8 km/h 16.1 km/h 98 % 0.3 mm 5 W/m2
07:40 4.8 °C 4.5 °C 1007.0 hPa ENE 6.4 km/h 16.1 km/h 98 % 0.3 mm 9 W/m2
07:45 4.8 °C 4.5 °C 1007.0 hPa ENE 4.8 km/h 14.5 km/h 98 % 0.3 mm 14 W/m2
07:50 4.9 °C 4.6 °C 1007.3 hPa East 4.8 km/h 14.5 km/h 98 % 0.3 mm 25 W/m2
07:55 5.0 °C 4.7 °C 1007.3 hPa Calm   12.9 km/h 98 % 0.3 mm 30 W/m2
08:00 5.1 °C 4.8 °C 1007.3 hPa East 6.4 km/h 11.3 km/h 98 % 0.5 mm 25 W/m2
08:05 5.2 °C 4.9 °C 1007.3 hPa East 4.8 km/h 11.3 km/h 98 % 0.3 mm 23 W/m2
08:10 5.2 °C 4.9 °C 1007.3 hPa East 4.8 km/h 12.9 km/h 98 % 0.3 mm 21 W/m2
08:15 5.2 °C 4.9 °C 1007.3 hPa ENE 3.2 km/h 12.9 km/h 98 % 0.3 mm 32 W/m2
08:20 5.3 °C 5.0 °C 1007.3 hPa East 3.2 km/h 11.3 km/h 98 % 0.3 mm 44 W/m2
08:25 5.4 °C 5.2 °C 1007.3 hPa ENE 6.4 km/h 12.9 km/h 98 % 0.3 mm 60 W/m2
08:30 5.6 °C 5.3 °C 1007.3 hPa East 4.8 km/h 12.9 km/h 98 % 0.3 mm 76 W/m2
08:35 5.6 °C 5.3 °C 1007.3 hPa ENE 1.6 km/h 11.3 km/h 98 % 0.3 mm 95 W/m2
08:40 5.7 °C 5.4 °C 1007.3 hPa Calm   11.3 km/h 98 % 0.3 mm 130 W/m2
08:45 5.9 °C 5.7 °C 1007.3 hPa Calm   11.3 km/h 98 % 0.5 mm 179 W/m2
08:50 6.2 °C 6.0 °C 1007.3 hPa Calm   11.3 km/h 99 % 0.5 mm 148 W/m2
08:55 6.2 °C 6.0 °C 1007.7 hPa East 4.8 km/h 9.7 km/h 99 % 0.5 mm 118 W/m2
09:00 6.1 °C 5.8 °C 1007.3 hPa ENE 6.4 km/h 11.3 km/h 98 % 0.3 mm 134 W/m2
09:05 6.1 °C 5.8 °C 1007.7 hPa ESE 6.4 km/h 12.9 km/h 98 % 0.3 mm 120 W/m2
09:10 6.2 °C 5.9 °C 1007.7 hPa ENE 3.2 km/h 12.9 km/h 98 % 0.3 mm 137 W/m2
09:15 6.3 °C 6.0 °C 1007.7 hPa SE 4.8 km/h 14.5 km/h 98 % 0.3 mm 121 W/m2
09:20 6.2 °C 5.9 °C 1007.7 hPa East 4.8 km/h 14.5 km/h 98 % 0.3 mm 148 W/m2
09:25 6.4 °C 6.1 °C 1007.7 hPa ENE 8.0 km/h 12.9 km/h 98 % 0.3 mm 153 W/m2
09:30 6.6 °C 6.3 °C 1007.7 hPa East 8.0 km/h 12.9 km/h 98 % 0.3 mm 137 W/m2
09:35 6.7 °C 6.4 °C 1007.7 hPa ENE 3.2 km/h 17.7 km/h 98 % 0.3 mm 241 W/m2
09:40 6.8 °C 6.5 °C 1007.7 hPa East 3.2 km/h 17.7 km/h 98 % 0.3 mm 436 W/m2
09:45 6.9 °C 6.6 °C 1007.7 hPa East 9.7 km/h 14.5 km/h 98 % 0.0 mm 234 W/m2
09:50 6.8 °C 6.5 °C 1007.7 hPa East 4.8 km/h 14.5 km/h 98 % 0.0 mm 220 W/m2
09:55 6.8 °C 6.5 °C 1007.7 hPa ENE 3.2 km/h 16.1 km/h 98 % 0.0 mm 262 W/m2
10:00 6.9 °C 6.7 °C 1008.0 hPa ENE 3.2 km/h 16.1 km/h 98 % 0.0 mm 227 W/m2
10:05 7.2 °C 6.9 °C 1008.0 hPa NE 8.0 km/h 12.9 km/h 98 % 0.0 mm 220 W/m2
10:10 7.2 °C 6.7 °C 1008.0 hPa NE 1.6 km/h 14.5 km/h 97 % 0.0 mm 239 W/m2
10:15 7.4 °C 7.0 °C 1008.0 hPa ENE 6.4 km/h 14.5 km/h 97 % 0.0 mm 200 W/m2
10:20 7.4 °C 6.9 °C 1008.0 hPa NE 1.6 km/h 14.5 km/h 97 % 0.0 mm 216 W/m2
10:25 7.2 °C 6.6 °C 1008.0 hPa ENE 8.0 km/h 16.1 km/h 96 % 0.0 mm 158 W/m2
10:30 7.1 °C 6.5 °C 1008.0 hPa NE 9.7 km/h 16.1 km/h 96 % 0.0 mm 162 W/m2
10:40 7.2 °C 6.6 °C 1008.0 hPa ENE 6.4 km/h 14.5 km/h 96 % 0.0 mm 185 W/m2
10:50 7.6 °C 7.0 °C 1008.0 hPa ESE 3.2 km/h 14.5 km/h 96 % 0.0 mm 211 W/m2
10:55 7.5 °C 6.8 °C 1008.0 hPa East 4.8 km/h 14.5 km/h 95 % 0.0 mm 250 W/m2
11:00 7.4 °C 6.7 °C 1008.0 hPa East 11.3 km/h 14.5 km/h 95 % 0.0 mm 179 W/m2
11:05 7.5 °C 6.8 °C 1008.0 hPa NE 6.4 km/h 14.5 km/h 95 % 0.0 mm 185 W/m2
11:10 7.7 °C 6.9 °C 1008.0 hPa ENE 6.4 km/h 12.9 km/h 95 % 0.0 mm 179 W/m2
11:15 7.7 °C 6.8 °C 1008.4 hPa ENE 8.0 km/h 12.9 km/h 94 % 0.0 mm 171 W/m2
11:20 7.5 °C 6.4 °C 1008.4 hPa East 8.0 km/h 14.5 km/h 93 % 0.0 mm 156 W/m2
11:25 7.6 °C 6.5 °C 1008.4 hPa ENE 4.8 km/h 14.5 km/h 93 % 0.0 mm 127 W/m2
11:30 7.6 °C 6.6 °C 1008.4 hPa ENE 3.2 km/h 12.9 km/h 93 % 0.0 mm 155 W/m2
11:35 7.7 °C 6.7 °C 1008.4 hPa ENE 6.4 km/h 11.3 km/h 93 % 0.0 mm 181 W/m2
11:40 7.9 °C 6.8 °C 1008.4 hPa ENE 3.2 km/h 12.9 km/h 93 % 0.0 mm 186 W/m2
11:45 8.2 °C 7.3 °C 1008.4 hPa ENE 11.3 km/h 12.9 km/h 94 % 0.0 mm 265 W/m2
11:50 8.2 °C 7.0 °C 1008.4 hPa East 3.2 km/h 14.5 km/h 92 % 0.0 mm 341 W/m2
11:55 8.4 °C 7.2 °C 1008.4 hPa ENE 11.3 km/h 14.5 km/h 92 % 0.0 mm 369 W/m2
12:00 8.6 °C 7.1 °C 1008.4 hPa ESE 4.8 km/h 12.9 km/h 90 % 0.0 mm 343 W/m2
12:05 8.7 °C 7.0 °C 1008.4 hPa ESE 6.4 km/h 16.1 km/h 89 % 0.0 mm 417 W/m2
12:10 9.2 °C 7.3 °C 1008.4 hPa East 4.8 km/h 16.1 km/h 88 % 0.0 mm 411 W/m2
12:20 9.6 °C 7.8 °C 1008.4 hPa NE 8.0 km/h 14.5 km/h 89 % 0.0 mm 533 W/m2
12:25 9.6 °C 7.5 °C 1008.4 hPa East 4.8 km/h 14.5 km/h 87 % 0.0 mm 429 W/m2
12:30 10.1 °C 7.8 °C 1008.4 hPa NE 4.8 km/h 14.5 km/h 86 % 0.0 mm 487 W/m2
12:35 10.3 °C 7.7 °C 1008.4 hPa NE 3.2 km/h 17.7 km/h 84 % 0.0 mm 332 W/m2
12:40 9.9 °C 7.4 °C 1008.0 hPa ESE 4.8 km/h 17.7 km/h 84 % 0.0 mm 359 W/m2
12:45 10.3 °C 7.7 °C 1008.0 hPa Calm   16.1 km/h 84 % 0.0 mm 784 W/m2
12:50 10.5 °C 7.9 °C 1008.0 hPa East 9.7 km/h 16.1 km/h 84 % 0.0 mm 327 W/m2
12:55 10.4 °C 7.5 °C 1008.0 hPa NE 9.7 km/h 11.3 km/h 82 % 0.0 mm 272 W/m2
13:00 10.2 °C 7.8 °C 1008.0 hPa North 6.4 km/h 12.9 km/h 85 % 0.0 mm 241 W/m2
13:05 10.8 °C 8.2 °C 1008.0 hPa North 12.9 km/h 12.9 km/h 84 % 0.0 mm 754 W/m2
13:10 10.3 °C 7.4 °C 1008.0 hPa NE 4.8 km/h 12.9 km/h 82 % 0.0 mm 176 W/m2
13:15 9.8 °C 7.3 °C 1008.0 hPa NE 8.0 km/h 12.9 km/h 84 % 0.0 mm 211 W/m2
13:20 9.6 °C 7.0 °C 1008.0 hPa East 9.7 km/h 14.5 km/h 84 % 0.0 mm 232 W/m2
13:25 9.8 °C 7.1 °C 1008.0 hPa ENE 11.3 km/h 17.7 km/h 83 % 0.0 mm 141 W/m2
13:30 9.6 °C 6.8 °C 1008.0 hPa North 11.3 km/h 17.7 km/h 83 % 0.0 mm 100 W/m2
13:35 9.3 °C 6.9 °C 1008.0 hPa East 9.7 km/h 16.1 km/h 85 % 0.0 mm 105 W/m2
13:40 9.3 °C 6.5 °C 1008.0 hPa Calm   12.9 km/h 83 % 0.0 mm 93 W/m2
13:45 9.3 °C 6.9 °C 1008.0 hPa NE 3.2 km/h 11.3 km/h 85 % 0.0 mm 98 W/m2
13:50 9.3 °C 6.9 °C 1008.0 hPa NNE 6.4 km/h 11.3 km/h 85 % 0.0 mm 109 W/m2
13:55 9.3 °C 6.7 °C 1008.0 hPa North 8.0 km/h 11.3 km/h 84 % 0.0 mm 125 W/m2
14:00 9.4 °C 6.6 °C 1008.0 hPa NE 1.6 km/h 9.7 km/h 83 % 0.0 mm 127 W/m2
14:05 9.5 °C 6.8 °C 1008.0 hPa NNE 6.4 km/h 11.3 km/h 83 % 0.0 mm 114 W/m2
14:10 9.4 °C 6.7 °C 1008.0 hPa Calm   12.9 km/h 83 % 0.0 mm 132 W/m2
14:15 9.6 °C 7.0 °C 1008.0 hPa NNE 1.6 km/h 12.9 km/h 84 % 0.0 mm 167 W/m2
14:20 9.8 °C 7.0 °C 1008.0 hPa North 1.6 km/h 9.7 km/h 83 % 0.0 mm 193 W/m2
14:25 10.1 °C 7.6 °C 1008.0 hPa NE 3.2 km/h 8.0 km/h 85 % 0.0 mm 155 W/m2
14:30 9.7 °C 7.1 °C 1008.4 hPa Calm   8.0 km/h 84 % 0.5 mm 74 W/m2
14:35 9.2 °C 7.2 °C 1008.4 hPa Calm   8.0 km/h 87 % 0.5 mm 86 W/m2
14:40 9.1 °C 7.5 °C 1008.4 hPa Calm   4.8 km/h 90 % 0.5 mm 153 W/m2
14:45 9.2 °C 7.8 °C 1008.0 hPa NNW 1.6 km/h 3.2 km/h 91 % 0.5 mm 139 W/m2
14:50 9.0 °C 7.4 °C 1008.4 hPa Calm   3.2 km/h 90 % 0.5 mm 95 W/m2
15:00 9.4 °C 8.0 °C 1008.0 hPa Calm   4.8 km/h 91 % 0.5 mm 290 W/m2
15:05 9.9 °C 8.5 °C 1008.0 hPa NNE 3.2 km/h 8.0 km/h 91 % 0.5 mm 283 W/m2
15:10 9.8 °C 7.7 °C 1008.0 hPa Calm   8.0 km/h 87 % 0.5 mm 209 W/m2
15:15 9.7 °C 7.8 °C 1008.0 hPa East 4.8 km/h 11.3 km/h 88 % 0.5 mm 172 W/m2
15:20 9.6 °C 7.3 °C 1008.0 hPa Calm   11.3 km/h 86 % 0.5 mm 169 W/m2
15:25 9.5 °C 7.4 °C 1008.4 hPa NE 3.2 km/h 8.0 km/h 87 % 0.5 mm 160 W/m2
15:30 9.5 °C 7.4 °C 1008.4 hPa Calm   6.4 km/h 87 % 0.3 mm 104 W/m2
15:35 9.3 °C 6.9 °C 1008.4 hPa SSW 6.4 km/h 9.7 km/h 85 % 0.0 mm 63 W/m2
15:40 8.8 °C 6.2 °C 1008.7 hPa SSE 17.7 km/h 20.9 km/h 84 % 0.0 mm 35 W/m2
15:45 7.7 °C 5.3 °C 1008.7 hPa SSW 12.9 km/h 29.0 km/h 85 % 0.0 mm 56 W/m2
15:55 7.1 °C 5.0 °C 1008.7 hPa SSW 16.1 km/h 22.5 km/h 87 % 0.0 mm 30 W/m2
16:00 7.0 °C 5.1 °C 1008.7 hPa South 6.4 km/h 20.9 km/h 88 % 0.0 mm 14 W/m2
16:05 7.1 °C 5.4 °C 1009.0 hPa South 6.4 km/h 16.1 km/h 89 % 0.0 mm 11 W/m2
16:10 7.1 °C 5.7 °C 1009.0 hPa South 3.2 km/h 16.1 km/h 91 % 0.3 mm 12 W/m2
16:15 6.9 °C 5.6 °C 1009.4 hPa SE 1.6 km/h 19.3 km/h 91 % 0.3 mm 19 W/m2
16:20 6.8 °C 5.6 °C 1009.4 hPa SE 4.8 km/h 19.3 km/h 92 % 0.5 mm 26 W/m2
16:25 6.7 °C 5.5 °C 1009.4 hPa Calm   6.4 km/h 92 % 0.5 mm 32 W/m2
16:30 6.7 °C 5.7 °C 1009.4 hPa Calm   6.4 km/h 93 % 0.8 mm 49 W/m2
16:35 6.7 °C 5.7 °C 1009.4 hPa Calm   3.2 km/h 93 % 1.0 mm 76 W/m2
16:40 6.8 °C 5.9 °C 1009.4 hPa Calm   3.2 km/h 94 % 1.0 mm 77 W/m2
16:45 6.9 °C 6.0 °C 1009.4 hPa South 4.8 km/h 4.8 km/h 94 % 1.3 mm 74 W/m2
16:50 7.0 °C 6.1 °C 1009.0 hPa WSW 3.2 km/h 8.0 km/h 94 % 1.3 mm 83 W/m2
16:55 6.9 °C 6.0 °C 1009.0 hPa SSW 1.6 km/h 11.3 km/h 94 % 1.3 mm 84 W/m2
17:00 6.8 °C 5.9 °C 1009.0 hPa SW 6.4 km/h 11.3 km/h 94 % 1.3 mm 81 W/m2
17:05 6.8 °C 5.9 °C 1009.4 hPa SSW 4.8 km/h 6.4 km/h 94 % 1.3 mm 76 W/m2
17:10 6.9 °C 6.1 °C 1009.4 hPa South 3.2 km/h 6.4 km/h 95 % 1.0 mm 58 W/m2
17:15 6.9 °C 6.0 °C 1009.4 hPa South 3.2 km/h 6.4 km/h 94 % 1.3 mm 47 W/m2
17:20 6.9 °C 6.0 °C 1009.4 hPa South 3.2 km/h 6.4 km/h 94 % 1.0 mm 44 W/m2
17:25 7.0 °C 6.1 °C 1009.4 hPa SSE 4.8 km/h 8.0 km/h 94 % 1.0 mm 42 W/m2
17:30 7.0 °C 6.1 °C 1009.7 hPa Calm   8.0 km/h 94 % 1.0 mm 32 W/m2
17:35 7.1 °C 6.3 °C 1009.7 hPa Calm   8.0 km/h 95 % 0.8 mm 23 W/m2
17:40 7.0 °C 6.3 °C 1009.7 hPa Calm   6.4 km/h 95 % 1.0 mm 25 W/m2
17:45 7.0 °C 6.3 °C 1009.7 hPa SSE 1.6 km/h 6.4 km/h 95 % 1.0 mm 28 W/m2
17:50 6.9 °C 6.1 °C 1009.7 hPa ESE 3.2 km/h 11.3 km/h 95 % 1.3 mm 35 W/m2
17:55 6.7 °C 6.0 °C 1009.7 hPa ESE 1.6 km/h 11.3 km/h 95 % 1.3 mm 39 W/m2
18:00 6.6 °C 5.8 °C 1009.7 hPa Calm   9.7 km/h 95 % 1.5 mm 42 W/m2
18:05 6.7 °C 5.9 °C 1009.7 hPa ESE 1.6 km/h 8.0 km/h 95 % 1.5 mm 39 W/m2
18:10 6.5 °C 5.8 °C 1009.7 hPa Calm   4.8 km/h 95 % 1.5 mm 35 W/m2
18:15 6.4 °C 5.6 °C 1009.7 hPa Calm   3.2 km/h 95 % 1.3 mm 28 W/m2
18:20 6.5 °C 5.8 °C 1009.7 hPa Calm   1.6 km/h 95 % 1.3 mm 26 W/m2
18:25 6.5 °C 5.8 °C 1009.7 hPa Calm     95 % 1.3 mm 35 W/m2
18:30 6.6 °C 6.0 °C 1010.0 hPa Calm   3.2 km/h 96 % 1.3 mm 39 W/m2
18:35 6.5 °C 5.9 °C 1010.0 hPa Calm   3.2 km/h 96 % 1.3 mm 37 W/m2
18:40 6.5 °C 5.9 °C 1010.0 hPa Calm   3.2 km/h 96 % 1.0 mm 32 W/m2
18:45 6.4 °C 5.9 °C 1010.0 hPa Calm   3.2 km/h 96 % 0.8 mm 25 W/m2
18:50 6.4 °C 5.9 °C 1010.0 hPa Calm   1.6 km/h 96 % 0.5 mm 19 W/m2
18:55 6.4 °C 5.9 °C 1010.0 hPa Calm   3.2 km/h 96 % 0.5 mm 16 W/m2
19:00 6.4 °C 5.8 °C 1010.0 hPa Calm   3.2 km/h 96 % 0.5 mm 12 W/m2
19:05 6.3 °C 5.7 °C 1010.4 hPa ESE 1.6 km/h 3.2 km/h 96 % 0.5 mm 11 W/m2
19:10 6.2 °C 5.6 °C 1010.4 hPa ESE 1.6 km/h 3.2 km/h 96 % 0.5 mm 9 W/m2
19:15 6.1 °C 5.5 °C 1010.4 hPa Calm   4.8 km/h 96 % 0.3 mm 7 W/m2
19:20 6.1 °C 5.5 °C 1010.4 hPa ENE 1.6 km/h 4.8 km/h 96 % 0.3 mm 5 W/m2
19:25 5.9 °C 5.4 °C 1010.4 hPa ENE 1.6 km/h 3.2 km/h 96 % 0.3 mm 0 W/m2
19:30 5.9 °C 5.4 °C 1010.7 hPa ENE 1.6 km/h 4.8 km/h 96 % 0.0 mm 0 W/m2
19:35 5.8 °C 5.2 °C 1010.7 hPa Calm   4.8 km/h 96 % 0.0 mm 0 W/m2
19:40 5.7 °C 5.1 °C 1010.7 hPa Calm   4.8 km/h 96 % 0.0 mm 0 W/m2
19:45 5.7 °C 5.1 °C 1010.7 hPa Calm   3.2 km/h 96 % 0.0 mm 0 W/m2
19:50 5.6 °C 5.0 °C 1011.1 hPa East 3.2 km/h 4.8 km/h 96 % 0.0 mm 0 W/m2
19:55 5.5 °C 4.9 °C 1011.1 hPa Calm   8.0 km/h 96 % 0.0 mm 0 W/m2
20:00 5.3 °C 4.7 °C 1011.1 hPa Calm   8.0 km/h 96 % 0.0 mm 0 W/m2
20:05 5.1 °C 4.5 °C 1011.1 hPa East 1.6 km/h 1.6 km/h 96 % 0.0 mm 0 W/m2
20:10 5.1 °C 4.5 °C 1011.1 hPa Calm   1.6 km/h 96 % 0.0 mm 0 W/m2
20:15 5.2 °C 4.6 °C 1011.1 hPa Calm   3.2 km/h 96 % 0.0 mm 0 W/m2
20:20 5.0 °C 4.4 °C 1011.4 hPa Calm   3.2 km/h 96 % 0.0 mm 0 W/m2
20:25 4.9 °C 4.3 °C 1011.4 hPa Calm   1.6 km/h 96 % 0.0 mm 0 W/m2
20:30 4.9 °C 4.5 °C 1011.4 hPa Calm   4.8 km/h 97 % 0.0 mm 0 W/m2
20:35 5.0 °C 4.4 °C 1011.7 hPa East 1.6 km/h 4.8 km/h 96 % 0.0 mm 0 W/m2
20:40 4.9 °C 4.4 °C 1011.7 hPa Calm   4.8 km/h 96 % 0.0 mm 0 W/m2
20:45 4.9 °C 4.4 °C 1011.7 hPa Calm   4.8 km/h 96 % 0.0 mm 0 W/m2
20:50 5.0 °C 4.6 °C 1011.7 hPa ESE 1.6 km/h 4.8 km/h 97 % 0.0 mm 0 W/m2
20:55 5.0 °C 4.6 °C 1012.1 hPa ESE 1.6 km/h 8.0 km/h 97 % 0.0 mm 0 W/m2
21:00 5.0 °C 4.6 °C 1011.7 hPa ESE 4.8 km/h 9.7 km/h 97 % 0.0 mm 0 W/m2
21:05 5.1 °C 4.7 °C 1012.1 hPa East 1.6 km/h 9.7 km/h 97 % 0.0 mm 0 W/m2
21:10 5.2 °C 4.8 °C 1012.1 hPa Calm   8.0 km/h 97 % 0.0 mm 0 W/m2
21:15 5.3 °C 4.9 °C 1012.1 hPa East 1.6 km/h 6.4 km/h 97 % 0.0 mm 0 W/m2
21:20 5.4 °C 5.0 °C 1012.1 hPa East 3.2 km/h 4.8 km/h 97 % 0.0 mm 0 W/m2
21:25 5.4 °C 5.0 °C 1012.4 hPa East 1.6 km/h 4.8 km/h 97 % 0.0 mm 0 W/m2
21:30 5.4 °C 5.0 °C 1012.4 hPa East 1.6 km/h 6.4 km/h 97 % 0.0 mm 0 W/m2
21:35 5.4 °C 5.0 °C 1012.4 hPa East 3.2 km/h 6.4 km/h 97 % 0.0 mm 0 W/m2
21:40 5.4 °C 5.0 °C 1012.4 hPa East 1.6 km/h 6.4 km/h 97 % 0.0 mm 0 W/m2
21:45 5.6 °C 5.1 °C 1012.8 hPa Calm   8.0 km/h 97 % 0.0 mm 0 W/m2
21:50 5.6 °C 5.2 °C 1012.8 hPa Calm   8.0 km/h 97 % 0.0 mm 0 W/m2
21:55 5.6 °C 5.2 °C 1012.8 hPa East 4.8 km/h 8.0 km/h 97 % 0.0 mm 0 W/m2
22:10 5.7 °C 5.3 °C 1013.1 hPa East 3.2 km/h 8.0 km/h 97 % 0.0 mm 0 W/m2
22:15 5.7 °C 5.3 °C 1013.1 hPa East 4.8 km/h 8.0 km/h 97 % 0.0 mm 0 W/m2
22:20 5.7 °C 5.3 °C 1013.1 hPa Calm   4.8 km/h 97 % 0.0 mm 0 W/m2
22:25 5.7 °C 5.3 °C 1013.1 hPa East 1.6 km/h 4.8 km/h 97 % 0.0 mm 0 W/m2
22:30 5.8 °C 5.3 °C 1013.1 hPa East 1.6 km/h 4.8 km/h 97 % 0.0 mm 0 W/m2
22:35 5.8 °C 5.3 °C 1013.4 hPa ESE 3.2 km/h 8.0 km/h 97 % 0.0 mm 0 W/m2
22:40 5.8 °C 5.4 °C 1013.4 hPa ESE 4.8 km/h 8.0 km/h 97 % 0.0 mm 0 W/m2
22:45 5.9 °C 5.5 °C 1013.4 hPa ESE 8.0 km/h 12.9 km/h 97 % 0.0 mm 0 W/m2
22:50 6.0 °C 5.6 °C 1013.4 hPa ESE 8.0 km/h 12.9 km/h 97 % 0.0 mm 0 W/m2
22:55 6.1 °C 5.6 °C 1013.8 hPa ESE 6.4 km/h 11.3 km/h 97 % 0.0 mm 0 W/m2
23:00 6.1 °C 5.6 °C 1013.8 hPa SE 4.8 km/h 11.3 km/h 97 % 0.0 mm 0 W/m2
23:05 6.1 °C 5.6 °C 1013.8 hPa East 4.8 km/h 12.9 km/h 97 % 0.0 mm 0 W/m2
23:10 6.1 °C 5.6 °C 1013.8 hPa ESE 4.8 km/h 12.9 km/h 97 % 0.0 mm 0 W/m2
23:15 6.0 °C 5.6 °C 1014.1 hPa ESE 1.6 km/h 12.9 km/h 97 % 0.0 mm 0 W/m2
23:20 6.0 °C 5.6 °C 1014.1 hPa SE 8.0 km/h 12.9 km/h 97 % 0.0 mm 0 W/m2
23:25 5.9 °C 5.5 °C 1014.1 hPa ESE 6.4 km/h 12.9 km/h 97 % 0.0 mm 0 W/m2
23:30 5.8 °C 5.4 °C 1014.1 hPa ESE 8.0 km/h 12.9 km/h 97 % 0.0 mm 0 W/m2
23:35 5.8 °C 5.3 °C 1014.1 hPa SE 8.0 km/h 14.5 km/h 97 % 0.0 mm 0 W/m2
23:40 5.7 °C 5.2 °C 1014.1 hPa ESE 8.0 km/h 14.5 km/h 97 % 0.0 mm 0 W/m2
23:45 5.6 °C 5.1 °C 1014.1 hPa ESE 4.8 km/h 14.5 km/h 97 % 0.0 mm 0 W/m2
23:50 5.5 °C 5.1 °C 1014.4 hPa ESE 4.8 km/h 12.9 km/h 97 % 0.0 mm 0 W/m2
23:55 5.4 °C 5.0 °C 1014.4 hPa East 3.2 km/h 11.3 km/h 97 % 0.0 mm 0 W/m2
Avec l'autorisation de Weather Underground - 1.75 mb